sensor_id;sensor_type;location;lat;lon;timestamp;P1;durP1;ratioP1;P2;durP2;ratioP2
43337;SDS011;28933;52.492;13.434;2022-08-04T00:03:12;10.07;;;5.20;;
43337;SDS011;28933;52.492;13.434;2022-08-04T00:11:09;6.70;;;5.57;;
43337;SDS011;28933;52.492;13.434;2022-08-04T00:13:38;6.82;;;5.38;;
43337;SDS011;28933;52.492;13.434;2022-08-04T00:16:07;9.70;;;5.90;;
43337;SDS011;28933;52.492;13.434;2022-08-04T00:18:41;8.13;;;5.70;;
43337;SDS011;28933;52.492;13.434;2022-08-04T00:21:14;9.30;;;5.95;;
43337;SDS011;28933;52.492;13.434;2022-08-04T00:23:43;7.03;;;5.18;;
43337;SDS011;28933;52.492;13.434;2022-08-04T00:26:09;9.65;;;5.72;;
43337;SDS011;28933;52.492;13.434;2022-08-04T00:28:35;6.85;;;5.35;;
43337;SDS011;28933;52.492;13.434;2022-08-04T00:31:08;7.78;;;5.07;;
43337;SDS011;28933;52.492;13.434;2022-08-04T00:33:36;7.07;;;4.97;;
43337;SDS011;28933;52.492;13.434;2022-08-04T00:36:02;7.28;;;4.75;;
43337;SDS011;28933;52.492;13.434;2022-08-04T00:38:29;6.72;;;5.07;;
43337;SDS011;28933;52.492;13.434;2022-08-04T00:49:38;7.60;;;4.40;;
43337;SDS011;28933;52.492;13.434;2022-08-04T00:52:14;5.25;;;4.60;;
43337;SDS011;28933;52.492;13.434;2022-08-04T00:57:52;6.90;;;4.68;;
43337;SDS011;28933;52.492;13.434;2022-08-04T01:00:27;6.93;;;4.75;;
43337;SDS011;28933;52.492;13.434;2022-08-04T01:19:59;9.18;;;4.70;;
43337;SDS011;28933;52.492;13.434;2022-08-04T01:31:09;7.30;;;5.10;;
43337;SDS011;28933;52.492;13.434;2022-08-04T01:33:44;6.88;;;4.22;;
43337;SDS011;28933;52.492;13.434;2022-08-04T01:36:14;9.30;;;5.05;;
43337;SDS011;28933;52.492;13.434;2022-08-04T01:38:40;7.25;;;4.95;;
43337;SDS011;28933;52.492;13.434;2022-08-04T01:41:08;8.18;;;5.68;;
43337;SDS011;28933;52.492;13.434;2022-08-04T01:43:41;8.35;;;5.00;;
43337;SDS011;28933;52.492;13.434;2022-08-04T01:46:15;7.97;;;4.55;;
43337;SDS011;28933;52.492;13.434;2022-08-04T01:48:43;6.13;;;4.40;;
43337;SDS011;28933;52.492;13.434;2022-08-04T01:51:11;6.25;;;4.38;;
43337;SDS011;28933;52.492;13.434;2022-08-04T01:53:38;7.68;;;4.70;;
43337;SDS011;28933;52.492;13.434;2022-08-04T01:56:05;6.93;;;4.40;;
43337;SDS011;28933;52.492;13.434;2022-08-04T01:58:34;7.72;;;4.25;;
43337;SDS011;28933;52.492;13.434;2022-08-04T02:03:30;5.43;;;4.15;;
43337;SDS011;28933;52.492;13.434;2022-08-04T02:14:41;5.53;;;4.60;;
43337;SDS011;28933;52.492;13.434;2022-08-04T02:17:14;7.93;;;5.13;;
43337;SDS011;28933;52.492;13.434;2022-08-04T02:22:38;5.78;;;4.57;;
43337;SDS011;28933;52.492;13.434;2022-08-04T02:25:09;5.95;;;4.35;;
43337;SDS011;28933;52.492;13.434;2022-08-04T02:27:45;7.88;;;4.50;;
43337;SDS011;28933;52.492;13.434;2022-08-04T02:30:19;6.07;;;4.25;;
43337;SDS011;28933;52.492;13.434;2022-08-04T02:32:47;8.43;;;4.63;;
43337;SDS011;28933;52.492;13.434;2022-08-04T02:35:35;7.18;;;4.65;;
43337;SDS011;28933;52.492;13.434;2022-08-04T02:38:26;7.43;;;4.75;;
43337;SDS011;28933;52.492;13.434;2022-08-04T02:40:53;6.25;;;4.10;;
43337;SDS011;28933;52.492;13.434;2022-08-04T02:43:22;6.78;;;4.20;;
43337;SDS011;28933;52.492;13.434;2022-08-04T02:45:50;7.10;;;4.75;;
43337;SDS011;28933;52.492;13.434;2022-08-04T02:48:21;6.22;;;3.95;;
43337;SDS011;28933;52.492;13.434;2022-08-04T02:50:49;10.88;;;4.50;;
43337;SDS011;28933;52.492;13.434;2022-08-04T02:53:16;7.75;;;4.05;;
43337;SDS011;28933;52.492;13.434;2022-08-04T02:55:45;5.57;;;4.20;;
43337;SDS011;28933;52.492;13.434;2022-08-04T02:58:14;5.43;;;4.47;;
43337;SDS011;28933;52.492;13.434;2022-08-04T03:00:43;6.90;;;4.22;;
43337;SDS011;28933;52.492;13.434;2022-08-04T03:03:25;8.13;;;5.15;;
43337;SDS011;28933;52.492;13.434;2022-08-04T03:14:04;7.43;;;4.82;;
43337;SDS011;28933;52.492;13.434;2022-08-04T03:16:50;6.60;;;4.70;;
43337;SDS011;28933;52.492;13.434;2022-08-04T03:30:44;8.75;;;4.82;;
43337;SDS011;28933;52.492;13.434;2022-08-04T03:33:19;8.82;;;4.55;;
43337;SDS011;28933;52.492;13.434;2022-08-04T03:41:47;6.53;;;4.95;;
43337;SDS011;28933;52.492;13.434;2022-08-04T03:44:54;6.53;;;4.57;;
43337;SDS011;28933;52.492;13.434;2022-08-04T04:09:11;6.30;;;5.22;;
43337;SDS011;28933;52.492;13.434;2022-08-04T04:14:11;11.05;;;5.65;;
43337;SDS011;28933;52.492;13.434;2022-08-04T04:19:53;5.35;;;4.70;;
43337;SDS011;28933;52.492;13.434;2022-08-04T04:22:59;5.75;;;4.75;;
43337;SDS011;28933;52.492;13.434;2022-08-04T04:26:00;7.40;;;5.18;;
43337;SDS011;28933;52.492;13.434;2022-08-04T04:31:32;7.70;;;5.53;;
43337;SDS011;28933;52.492;13.434;2022-08-04T04:51:19;13.25;;;6.35;;
43337;SDS011;28933;52.492;13.434;2022-08-04T04:54:04;14.25;;;6.20;;
43337;SDS011;28933;52.492;13.434;2022-08-04T04:59:10;12.30;;;6.80;;
43337;SDS011;28933;52.492;13.434;2022-08-04T05:10:21;15.38;;;6.53;;
43337;SDS011;28933;52.492;13.434;2022-08-04T05:12:51;15.70;;;7.13;;
43337;SDS011;28933;52.492;13.434;2022-08-04T05:15:25;14.00;;;7.32;;
43337;SDS011;28933;52.492;13.434;2022-08-04T05:17:55;9.48;;;7.05;;
43337;SDS011;28933;52.492;13.434;2022-08-04T05:20:26;8.85;;;6.43;;
43337;SDS011;28933;52.492;13.434;2022-08-04T05:23:16;10.98;;;7.22;;
43337;SDS011;28933;52.492;13.434;2022-08-04T05:25:52;9.48;;;6.38;;
43337;SDS011;28933;52.492;13.434;2022-08-04T05:28:21;9.27;;;6.72;;
43337;SDS011;28933;52.492;13.434;2022-08-04T05:30:53;14.73;;;6.65;;
43337;SDS011;28933;52.492;13.434;2022-08-04T05:36:32;9.75;;;6.57;;
43337;SDS011;28933;52.492;13.434;2022-08-04T05:39:03;10.15;;;6.90;;
43337;SDS011;28933;52.492;13.434;2022-08-04T05:41:32;7.90;;;6.82;;
43337;SDS011;28933;52.492;13.434;2022-08-04T05:43:58;21.10;;;7.70;;
43337;SDS011;28933;52.492;13.434;2022-08-04T05:46:25;14.43;;;7.18;;
43337;SDS011;28933;52.492;13.434;2022-08-04T05:48:53;19.38;;;7.32;;
43337;SDS011;28933;52.492;13.434;2022-08-04T05:51:20;11.30;;;6.97;;
43337;SDS011;28933;52.492;13.434;2022-08-04T05:53:45;7.40;;;6.28;;
43337;SDS011;28933;52.492;13.434;2022-08-04T05:56:13;7.95;;;6.20;;
43337;SDS011;28933;52.492;13.434;2022-08-04T05:58:40;7.60;;;6.28;;
43337;SDS011;28933;52.492;13.434;2022-08-04T06:01:07;7.40;;;6.55;;
43337;SDS011;28933;52.492;13.434;2022-08-04T06:03:34;9.25;;;6.40;;
43337;SDS011;28933;52.492;13.434;2022-08-04T06:06:02;11.32;;;6.47;;
43337;SDS011;28933;52.492;13.434;2022-08-04T06:08:28;10.38;;;6.85;;
43337;SDS011;28933;52.492;13.434;2022-08-04T06:10:55;12.63;;;7.47;;
43337;SDS011;28933;52.492;13.434;2022-08-04T06:13:32;12.07;;;7.75;;
43337;SDS011;28933;52.492;13.434;2022-08-04T06:16:05;10.50;;;7.70;;
43337;SDS011;28933;52.492;13.434;2022-08-04T06:18:33;11.43;;;7.13;;
43337;SDS011;28933;52.492;13.434;2022-08-04T06:21:01;12.43;;;7.03;;
43337;SDS011;28933;52.492;13.434;2022-08-04T06:23:28;11.10;;;7.28;;
43337;SDS011;28933;52.492;13.434;2022-08-04T06:25:57;8.52;;;6.60;;
43337;SDS011;28933;52.492;13.434;2022-08-04T06:28:26;10.57;;;7.18;;
43337;SDS011;28933;52.492;13.434;2022-08-04T06:30:53;9.90;;;6.85;;
43337;SDS011;28933;52.492;13.434;2022-08-04T06:33:19;10.13;;;6.60;;
43337;SDS011;28933;52.492;13.434;2022-08-04T06:35:58;12.10;;;7.35;;
43337;SDS011;28933;52.492;13.434;2022-08-04T06:38:26;10.95;;;5.80;;
43337;SDS011;28933;52.492;13.434;2022-08-04T06:40:54;9.48;;;6.00;;
43337;SDS011;28933;52.492;13.434;2022-08-04T06:43:22;7.95;;;5.63;;
43337;SDS011;28933;52.492;13.434;2022-08-04T06:45:48;13.88;;;5.70;;
43337;SDS011;28933;52.492;13.434;2022-08-04T06:48:15;10.23;;;6.10;;
43337;SDS011;28933;52.492;13.434;2022-08-04T06:50:42;10.40;;;6.72;;
43337;SDS011;28933;52.492;13.434;2022-08-04T06:53:11;13.05;;;6.45;;
43337;SDS011;28933;52.492;13.434;2022-08-04T06:55:38;7.72;;;5.55;;
43337;SDS011;28933;52.492;13.434;2022-08-04T06:58:05;11.35;;;6.07;;
43337;SDS011;28933;52.492;13.434;2022-08-04T07:00:32;13.77;;;6.03;;
43337;SDS011;28933;52.492;13.434;2022-08-04T07:03:00;6.68;;;5.32;;
43337;SDS011;28933;52.492;13.434;2022-08-04T07:05:27;11.25;;;6.00;;
43337;SDS011;28933;52.492;13.434;2022-08-04T07:07:52;10.77;;;5.10;;
43337;SDS011;28933;52.492;13.434;2022-08-04T07:10:18;8.15;;;5.57;;
43337;SDS011;28933;52.492;13.434;2022-08-04T07:12:46;10.05;;;5.65;;
43337;SDS011;28933;52.492;13.434;2022-08-04T07:15:13;10.77;;;5.28;;
43337;SDS011;28933;52.492;13.434;2022-08-04T07:17:42;7.20;;;4.78;;
43337;SDS011;28933;52.492;13.434;2022-08-04T07:20:09;8.30;;;5.13;;
43337;SDS011;28933;52.492;13.434;2022-08-04T07:22:35;7.40;;;5.10;;
43337;SDS011;28933;52.492;13.434;2022-08-04T07:25:01;7.55;;;5.68;;
43337;SDS011;28933;52.492;13.434;2022-08-04T07:27:33;8.63;;;5.05;;
43337;SDS011;28933;52.492;13.434;2022-08-04T07:29:59;9.65;;;5.25;;
43337;SDS011;28933;52.492;13.434;2022-08-04T07:32:25;6.95;;;4.65;;
43337;SDS011;28933;52.492;13.434;2022-08-04T07:34:51;9.55;;;4.95;;
43337;SDS011;28933;52.492;13.434;2022-08-04T07:37:18;9.07;;;4.80;;
43337;SDS011;28933;52.492;13.434;2022-08-04T07:39:44;7.10;;;4.78;;
43337;SDS011;28933;52.492;13.434;2022-08-04T07:42:10;7.38;;;4.85;;
43337;SDS011;28933;52.492;13.434;2022-08-04T07:44:36;6.20;;;4.82;;
43337;SDS011;28933;52.492;13.434;2022-08-04T07:47:03;6.32;;;4.60;;
43337;SDS011;28933;52.492;13.434;2022-08-04T07:49:32;6.32;;;4.68;;
43337;SDS011;28933;52.492;13.434;2022-08-04T07:51:58;6.20;;;4.32;;
43337;SDS011;28933;52.492;13.434;2022-08-04T07:54:25;8.95;;;5.00;;
43337;SDS011;28933;52.492;13.434;2022-08-04T07:56:51;5.97;;;4.53;;
43337;SDS011;28933;52.492;13.434;2022-08-04T07:59:17;6.97;;;4.82;;
43337;SDS011;28933;52.492;13.434;2022-08-04T08:01:44;6.30;;;4.32;;
43337;SDS011;28933;52.492;13.434;2022-08-04T08:04:10;8.65;;;4.30;;
43337;SDS011;28933;52.492;13.434;2022-08-04T08:06:37;7.95;;;4.32;;
43337;SDS011;28933;52.492;13.434;2022-08-04T08:09:07;8.35;;;4.97;;
43337;SDS011;28933;52.492;13.434;2022-08-04T08:11:34;6.85;;;4.13;;
43337;SDS011;28933;52.492;13.434;2022-08-04T08:14:00;6.00;;;4.25;;
43337;SDS011;28933;52.492;13.434;2022-08-04T08:16:26;9.40;;;4.47;;
43337;SDS011;28933;52.492;13.434;2022-08-04T08:18:52;9.07;;;4.13;;
43337;SDS011;28933;52.492;13.434;2022-08-04T08:21:19;6.90;;;4.35;;
43337;SDS011;28933;52.492;13.434;2022-08-04T08:23:45;6.60;;;4.55;;
43337;SDS011;28933;52.492;13.434;2022-08-04T08:26:12;8.63;;;4.00;;
43337;SDS011;28933;52.492;13.434;2022-08-04T08:28:37;8.70;;;3.97;;
43337;SDS011;28933;52.492;13.434;2022-08-04T08:31:03;6.20;;;4.32;;
43337;SDS011;28933;52.492;13.434;2022-08-04T08:33:29;5.55;;;3.92;;
43337;SDS011;28933;52.492;13.434;2022-08-04T08:50:11;5.03;;;3.80;;
43337;SDS011;28933;52.492;13.434;2022-08-04T08:55:25;5.30;;;3.97;;
43337;SDS011;28933;52.492;13.434;2022-08-04T09:09:18;5.97;;;4.13;;
43337;SDS011;28933;52.492;13.434;2022-08-04T09:14:52;10.68;;;4.50;;
43337;SDS011;28933;52.492;13.434;2022-08-04T09:20:14;5.60;;;3.92;;
43337;SDS011;28933;52.492;13.434;2022-08-04T09:22:59;6.22;;;4.20;;
43337;SDS011;28933;52.492;13.434;2022-08-04T09:25:53;5.68;;;4.40;;
43337;SDS011;28933;52.492;13.434;2022-08-04T09:28:27;9.30;;;4.10;;
43337;SDS011;28933;52.492;13.434;2022-08-04T09:31:06;7.80;;;4.50;;
43337;SDS011;28933;52.492;13.434;2022-08-04T09:33:45;6.53;;;4.45;;
43337;SDS011;28933;52.492;13.434;2022-08-04T09:39:14;7.72;;;3.90;;
43337;SDS011;28933;52.492;13.434;2022-08-04T09:41:50;5.82;;;4.07;;
43337;SDS011;28933;52.492;13.434;2022-08-04T09:47:15;4.78;;;3.20;;
43337;SDS011;28933;52.492;13.434;2022-08-04T09:49:54;3.90;;;3.35;;
43337;SDS011;28933;52.492;13.434;2022-08-04T09:53:29;6.72;;;3.72;;
43337;SDS011;28933;52.492;13.434;2022-08-04T09:58:36;5.80;;;3.45;;
43337;SDS011;28933;52.492;13.434;2022-08-04T10:01:23;5.47;;;3.88;;
43337;SDS011;28933;52.492;13.434;2022-08-04T10:04:00;7.15;;;3.50;;
43337;SDS011;28933;52.492;13.434;2022-08-04T10:06:47;5.60;;;3.63;;
43337;SDS011;28933;52.492;13.434;2022-08-04T10:15:12;5.18;;;3.47;;
43337;SDS011;28933;52.492;13.434;2022-08-04T10:20:50;4.43;;;2.83;;
43337;SDS011;28933;52.492;13.434;2022-08-04T10:26:24;5.82;;;2.90;;
43337;SDS011;28933;52.492;13.434;2022-08-04T10:28:59;4.18;;;2.75;;
43337;SDS011;28933;52.492;13.434;2022-08-04T10:31:34;4.45;;;2.78;;
43337;SDS011;28933;52.492;13.434;2022-08-04T10:34:14;5.50;;;2.78;;
43337;SDS011;28933;52.492;13.434;2022-08-04T10:39:41;3.55;;;2.67;;
43337;SDS011;28933;52.492;13.434;2022-08-04T10:42:37;7.68;;;2.92;;
43337;SDS011;28933;52.492;13.434;2022-08-04T10:45:12;3.50;;;2.70;;
43337;SDS011;28933;52.492;13.434;2022-08-04T10:47:51;4.78;;;2.83;;
43337;SDS011;28933;52.492;13.434;2022-08-04T10:50:39;3.30;;;2.75;;
43337;SDS011;28933;52.492;13.434;2022-08-04T10:53:13;5.40;;;3.22;;
43337;SDS011;28933;52.492;13.434;2022-08-04T10:55:50;4.80;;;3.45;;
43337;SDS011;28933;52.492;13.434;2022-08-04T10:58:22;4.68;;;2.60;;
43337;SDS011;28933;52.492;13.434;2022-08-04T11:00:55;3.17;;;2.70;;
43337;SDS011;28933;52.492;13.434;2022-08-04T11:06:13;3.45;;;2.97;;
43337;SDS011;28933;52.492;13.434;2022-08-04T11:08:46;4.13;;;2.90;;
43337;SDS011;28933;52.492;13.434;2022-08-04T11:14:11;5.63;;;2.85;;
43337;SDS011;28933;52.492;13.434;2022-08-04T11:19:41;4.95;;;3.20;;
43337;SDS011;28933;52.492;13.434;2022-08-04T11:22:25;4.10;;;2.63;;
43337;SDS011;28933;52.492;13.434;2022-08-04T11:28:01;4.78;;;2.97;;
43337;SDS011;28933;52.492;13.434;2022-08-04T11:30:50;3.40;;;2.72;;
43337;SDS011;28933;52.492;13.434;2022-08-04T11:33:26;5.53;;;3.03;;
43337;SDS011;28933;52.492;13.434;2022-08-04T11:42:32;7.43;;;3.15;;
43337;SDS011;28933;52.492;13.434;2022-08-04T11:50:17;5.03;;;2.97;;
43337;SDS011;28933;52.492;13.434;2022-08-04T11:52:49;6.53;;;3.17;;
43337;SDS011;28933;52.492;13.434;2022-08-04T11:55:18;3.72;;;2.70;;
43337;SDS011;28933;52.492;13.434;2022-08-04T11:57:46;6.18;;;3.08;;
43337;SDS011;28933;52.492;13.434;2022-08-04T12:00:13;4.35;;;2.92;;
43337;SDS011;28933;52.492;13.434;2022-08-04T12:07:00;3.53;;;2.30;;
43337;SDS011;28933;52.492;13.434;2022-08-04T12:14:25;4.10;;;2.38;;
43337;SDS011;28933;52.492;13.434;2022-08-04T12:19:30;4.93;;;3.00;;
43337;SDS011;28933;52.492;13.434;2022-08-04T12:22:03;4.13;;;2.78;;
43337;SDS011;28933;52.492;13.434;2022-08-04T12:24:38;6.63;;;2.97;;
43337;SDS011;28933;52.492;13.434;2022-08-04T12:27:23;4.30;;;3.47;;
43337;SDS011;28933;52.492;13.434;2022-08-04T12:29:53;5.07;;;3.40;;
43337;SDS011;28933;52.492;13.434;2022-08-04T12:32:24;4.75;;;3.20;;
43337;SDS011;28933;52.492;13.434;2022-08-04T12:37:50;5.38;;;3.20;;
43337;SDS011;28933;52.492;13.434;2022-08-04T12:40:24;4.47;;;2.90;;
43337;SDS011;28933;52.492;13.434;2022-08-04T12:45:33;4.88;;;3.40;;
43337;SDS011;28933;52.492;13.434;2022-08-04T12:47:59;6.35;;;3.40;;
43337;SDS011;28933;52.492;13.434;2022-08-04T12:50:28;4.63;;;3.10;;
43337;SDS011;28933;52.492;13.434;2022-08-04T12:52:56;5.38;;;2.85;;
43337;SDS011;28933;52.492;13.434;2022-08-04T12:55:24;3.80;;;2.90;;
43337;SDS011;28933;52.492;13.434;2022-08-04T12:57:53;3.25;;;2.58;;
43337;SDS011;28933;52.492;13.434;2022-08-04T13:00:27;6.25;;;2.97;;
43337;SDS011;28933;52.492;13.434;2022-08-04T13:03:15;5.03;;;2.60;;
43337;SDS011;28933;52.492;13.434;2022-08-04T13:05:42;3.17;;;2.67;;
43337;SDS011;28933;52.492;13.434;2022-08-04T13:08:09;4.72;;;2.67;;
43337;SDS011;28933;52.492;13.434;2022-08-04T13:10:37;4.18;;;2.75;;
43337;SDS011;28933;52.492;13.434;2022-08-04T13:13:18;4.60;;;2.70;;
43337;SDS011;28933;52.492;13.434;2022-08-04T13:15:58;3.85;;;2.75;;
43337;SDS011;28933;52.492;13.434;2022-08-04T13:18:29;6.32;;;2.60;;
43337;SDS011;28933;52.492;13.434;2022-08-04T13:21:08;4.15;;;2.90;;
43337;SDS011;28933;52.492;13.434;2022-08-04T13:23:33;5.45;;;2.60;;
43337;SDS011;28933;52.492;13.434;2022-08-04T13:26:01;3.25;;;2.63;;
43337;SDS011;28933;52.492;13.434;2022-08-04T13:28:29;4.90;;;2.97;;
43337;SDS011;28933;52.492;13.434;2022-08-04T13:30:59;5.38;;;2.83;;
43337;SDS011;28933;52.492;13.434;2022-08-04T13:33:31;6.85;;;2.83;;
43337;SDS011;28933;52.492;13.434;2022-08-04T13:35:59;5.72;;;2.53;;
43337;SDS011;28933;52.492;13.434;2022-08-04T13:38:26;3.42;;;2.35;;
43337;SDS011;28933;52.492;13.434;2022-08-04T13:40:56;5.03;;;2.70;;
43337;SDS011;28933;52.492;13.434;2022-08-04T13:43:28;3.83;;;2.70;;
43337;SDS011;28933;52.492;13.434;2022-08-04T13:46:02;4.90;;;2.60;;
43337;SDS011;28933;52.492;13.434;2022-08-04T13:48:35;3.45;;;2.50;;
43337;SDS011;28933;52.492;13.434;2022-08-04T13:51:06;3.70;;;2.28;;
43337;SDS011;28933;52.492;13.434;2022-08-04T13:53:34;3.97;;;2.88;;
43337;SDS011;28933;52.492;13.434;2022-08-04T13:56:01;3.67;;;2.70;;
43337;SDS011;28933;52.492;13.434;2022-08-04T13:58:30;3.33;;;2.60;;
43337;SDS011;28933;52.492;13.434;2022-08-04T14:01:41;6.47;;;2.75;;
43337;SDS011;28933;52.492;13.434;2022-08-04T14:06:29;3.88;;;2.50;;
43337;SDS011;28933;52.492;13.434;2022-08-04T14:09:19;3.08;;;2.40;;
43337;SDS011;28933;52.492;13.434;2022-08-04T14:11:48;2.40;;;1.98;;
43337;SDS011;28933;52.492;13.434;2022-08-04T14:16:56;3.95;;;2.00;;
43337;SDS011;28933;52.492;13.434;2022-08-04T14:19:25;4.65;;;2.20;;
43337;SDS011;28933;52.492;13.434;2022-08-04T14:21:52;3.38;;;1.90;;
43337;SDS011;28933;52.492;13.434;2022-08-04T14:24:21;3.60;;;2.65;;
43337;SDS011;28933;52.492;13.434;2022-08-04T14:26:48;3.22;;;2.10;;
43337;SDS011;28933;52.492;13.434;2022-08-04T14:29:15;5.72;;;2.03;;
43337;SDS011;28933;52.492;13.434;2022-08-04T14:31:46;2.30;;;1.83;;
43337;SDS011;28933;52.492;13.434;2022-08-04T14:34:26;3.88;;;2.08;;
43337;SDS011;28933;52.492;13.434;2022-08-04T14:37:05;2.88;;;2.00;;
43337;SDS011;28933;52.492;13.434;2022-08-04T14:39:42;4.15;;;2.15;;
43337;SDS011;28933;52.492;13.434;2022-08-04T14:42:13;3.55;;;2.20;;
43337;SDS011;28933;52.492;13.434;2022-08-04T14:44:56;3.10;;;2.20;;
43337;SDS011;28933;52.492;13.434;2022-08-04T14:47:41;4.05;;;2.22;;
43337;SDS011;28933;52.492;13.434;2022-08-04T14:50:09;3.92;;;1.80;;
43337;SDS011;28933;52.492;13.434;2022-08-04T14:52:36;4.25;;;2.28;;
43337;SDS011;28933;52.492;13.434;2022-08-04T14:55:21;5.55;;;2.08;;
43337;SDS011;28933;52.492;13.434;2022-08-04T14:57:49;3.05;;;1.98;;
43337;SDS011;28933;52.492;13.434;2022-08-04T15:02:51;5.20;;;2.35;;
43337;SDS011;28933;52.492;13.434;2022-08-04T15:05:21;3.38;;;2.47;;
43337;SDS011;28933;52.492;13.434;2022-08-04T15:07:47;2.78;;;2.20;;
43337;SDS011;28933;52.492;13.434;2022-08-04T15:10:13;3.05;;;2.08;;
43337;SDS011;28933;52.492;13.434;2022-08-04T15:12:40;2.65;;;2.08;;
43337;SDS011;28933;52.492;13.434;2022-08-04T15:15:06;4.18;;;2.42;;
43337;SDS011;28933;52.492;13.434;2022-08-04T15:17:32;5.35;;;2.58;;
43337;SDS011;28933;52.492;13.434;2022-08-04T15:19:57;3.30;;;2.33;;
43337;SDS011;28933;52.492;13.434;2022-08-04T15:22:23;4.07;;;2.25;;
43337;SDS011;28933;52.492;13.434;2022-08-04T15:24:49;4.50;;;2.20;;
43337;SDS011;28933;52.492;13.434;2022-08-04T15:27:14;4.05;;;2.25;;
43337;SDS011;28933;52.492;13.434;2022-08-04T15:29:42;4.72;;;2.45;;
43337;SDS011;28933;52.492;13.434;2022-08-04T15:32:11;2.75;;;2.10;;
43337;SDS011;28933;52.492;13.434;2022-08-04T15:34:49;4.63;;;2.40;;
43337;SDS011;28933;52.492;13.434;2022-08-04T15:40:35;4.25;;;2.38;;
43337;SDS011;28933;52.492;13.434;2022-08-04T15:45:53;2.63;;;2.22;;
43337;SDS011;28933;52.492;13.434;2022-08-04T15:48:22;3.60;;;2.28;;
43337;SDS011;28933;52.492;13.434;2022-08-04T15:53:25;3.67;;;2.38;;
43337;SDS011;28933;52.492;13.434;2022-08-04T15:55:52;3.28;;;2.65;;
43337;SDS011;28933;52.492;13.434;2022-08-04T15:58:18;3.47;;;2.35;;
43337;SDS011;28933;52.492;13.434;2022-08-04T16:06:00;2.85;;;2.25;;
43337;SDS011;28933;52.492;13.434;2022-08-04T16:16:26;4.72;;;2.47;;
43337;SDS011;28933;52.492;13.434;2022-08-04T16:19:16;3.38;;;2.28;;
43337;SDS011;28933;52.492;13.434;2022-08-04T16:21:48;2.20;;;1.95;;
43337;SDS011;28933;52.492;13.434;2022-08-04T16:24:16;2.97;;;2.03;;
43337;SDS011;28933;52.492;13.434;2022-08-04T16:26:45;3.70;;;2.20;;
43337;SDS011;28933;52.492;13.434;2022-08-04T16:43:00;5.45;;;2.25;;
43337;SDS011;28933;52.492;13.434;2022-08-04T16:48:07;4.05;;;2.38;;
43337;SDS011;28933;52.492;13.434;2022-08-04T16:50:44;3.80;;;2.50;;
43337;SDS011;28933;52.492;13.434;2022-08-04T16:53:15;3.72;;;2.53;;
43337;SDS011;28933;52.492;13.434;2022-08-04T16:55:46;2.80;;;2.20;;
43337;SDS011;28933;52.492;13.434;2022-08-04T16:58:14;4.38;;;2.47;;
43337;SDS011;28933;52.492;13.434;2022-08-04T17:00:49;6.03;;;2.08;;
43337;SDS011;28933;52.492;13.434;2022-08-04T17:03:15;3.83;;;2.17;;
43337;SDS011;28933;52.492;13.434;2022-08-04T17:05:43;2.90;;;2.08;;
43337;SDS011;28933;52.492;13.434;2022-08-04T17:08:12;3.20;;;2.33;;
43337;SDS011;28933;52.492;13.434;2022-08-04T17:10:40;4.45;;;2.50;;
43337;SDS011;28933;52.492;13.434;2022-08-04T17:13:27;4.65;;;2.75;;
43337;SDS011;28933;52.492;13.434;2022-08-04T17:16:00;4.25;;;3.10;;
43337;SDS011;28933;52.492;13.434;2022-08-04T17:18:31;4.25;;;2.63;;
43337;SDS011;28933;52.492;13.434;2022-08-04T17:21:00;7.22;;;2.75;;
43337;SDS011;28933;52.492;13.434;2022-08-04T17:23:38;3.47;;;3.03;;
43337;SDS011;28933;52.492;13.434;2022-08-04T17:28:37;3.30;;;2.97;;
43337;SDS011;28933;52.492;13.434;2022-08-04T17:31:04;6.55;;;2.70;;
43337;SDS011;28933;52.492;13.434;2022-08-04T17:33:32;4.15;;;2.92;;
43337;SDS011;28933;52.492;13.434;2022-08-04T17:35:58;5.90;;;3.22;;
43337;SDS011;28933;52.492;13.434;2022-08-04T17:38:29;4.15;;;2.63;;
43337;SDS011;28933;52.492;13.434;2022-08-04T17:40:56;4.15;;;2.50;;
43337;SDS011;28933;52.492;13.434;2022-08-04T17:43:34;4.20;;;3.60;;
43337;SDS011;28933;52.492;13.434;2022-08-04T17:46:13;4.93;;;2.70;;
43337;SDS011;28933;52.492;13.434;2022-08-04T17:48:58;3.40;;;2.85;;
43337;SDS011;28933;52.492;13.434;2022-08-04T17:56:51;4.78;;;2.67;;
43337;SDS011;28933;52.492;13.434;2022-08-04T18:02:09;6.38;;;2.63;;
43337;SDS011;28933;52.492;13.434;2022-08-04T18:09:55;6.50;;;2.95;;
43337;SDS011;28933;52.492;13.434;2022-08-04T18:14:48;4.25;;;2.90;;
43337;SDS011;28933;52.492;13.434;2022-08-04T18:17:32;4.85;;;3.00;;
43337;SDS011;28933;52.492;13.434;2022-08-04T18:20:10;4.10;;;2.80;;
43337;SDS011;28933;52.492;13.434;2022-08-04T18:22:39;5.88;;;3.17;;
43337;SDS011;28933;52.492;13.434;2022-08-04T18:25:06;3.92;;;2.97;;
43337;SDS011;28933;52.492;13.434;2022-08-04T18:27:33;7.32;;;2.85;;
43337;SDS011;28933;52.492;13.434;2022-08-04T18:29:59;6.15;;;2.63;;
43337;SDS011;28933;52.492;13.434;2022-08-04T18:32:26;3.53;;;2.88;;
43337;SDS011;28933;52.492;13.434;2022-08-04T18:34:53;4.65;;;2.72;;
43337;SDS011;28933;52.492;13.434;2022-08-04T18:37:19;3.92;;;2.85;;
43337;SDS011;28933;52.492;13.434;2022-08-04T18:39:44;4.65;;;2.88;;
43337;SDS011;28933;52.492;13.434;2022-08-04T18:42:10;7.88;;;2.95;;
43337;SDS011;28933;52.492;13.434;2022-08-04T18:44:36;6.30;;;3.13;;
43337;SDS011;28933;52.492;13.434;2022-08-04T18:47:02;8.45;;;3.30;;
43337;SDS011;28933;52.492;13.434;2022-08-04T18:49:28;4.88;;;3.25;;
43337;SDS011;28933;52.492;13.434;2022-08-04T18:51:55;4.68;;;3.35;;
43337;SDS011;28933;52.492;13.434;2022-08-04T18:54:22;5.10;;;3.53;;
43337;SDS011;28933;52.492;13.434;2022-08-04T18:56:51;5.88;;;3.03;;
43337;SDS011;28933;52.492;13.434;2022-08-04T18:59:17;10.27;;;4.55;;
43337;SDS011;28933;52.492;13.434;2022-08-04T19:01:44;5.65;;;3.88;;
43337;SDS011;28933;52.492;13.434;2022-08-04T19:04:10;5.35;;;4.00;;
43337;SDS011;28933;52.492;13.434;2022-08-04T19:06:36;5.68;;;3.53;;
43337;SDS011;28933;52.492;13.434;2022-08-04T19:09:02;7.97;;;4.03;;
43337;SDS011;28933;52.492;13.434;2022-08-04T19:11:30;7.88;;;3.90;;
43337;SDS011;28933;52.492;13.434;2022-08-04T19:13:57;8.13;;;4.80;;
43337;SDS011;28933;52.492;13.434;2022-08-04T19:16:26;8.00;;;3.90;;
43337;SDS011;28933;52.492;13.434;2022-08-04T19:18:53;5.00;;;4.07;;
43337;SDS011;28933;52.492;13.434;2022-08-04T19:21:18;7.18;;;4.30;;
43337;SDS011;28933;52.492;13.434;2022-08-04T19:23:44;9.30;;;4.60;;
43337;SDS011;28933;52.492;13.434;2022-08-04T19:26:10;7.97;;;4.43;;
43337;SDS011;28933;52.492;13.434;2022-08-04T19:28:35;9.85;;;5.25;;
43337;SDS011;28933;52.492;13.434;2022-08-04T19:31:05;7.68;;;5.20;;
43337;SDS011;28933;52.492;13.434;2022-08-04T19:33:32;6.47;;;4.75;;
43337;SDS011;28933;52.492;13.434;2022-08-04T19:35:58;8.82;;;5.18;;
43337;SDS011;28933;52.492;13.434;2022-08-04T19:38:24;7.18;;;4.57;;
43337;SDS011;28933;52.492;13.434;2022-08-04T19:40:49;7.35;;;4.82;;
43337;SDS011;28933;52.492;13.434;2022-08-04T19:43:15;7.20;;;4.35;;
43337;SDS011;28933;52.492;13.434;2022-08-04T19:45:41;9.85;;;5.10;;
43337;SDS011;28933;52.492;13.434;2022-08-04T19:48:07;7.60;;;4.20;;
43337;SDS011;28933;52.492;13.434;2022-08-04T19:50:32;8.75;;;5.00;;
43337;SDS011;28933;52.492;13.434;2022-08-04T19:52:58;11.27;;;6.60;;
43337;SDS011;28933;52.492;13.434;2022-08-04T19:55:24;9.95;;;6.35;;
43337;SDS011;28933;52.492;13.434;2022-08-04T19:57:50;7.38;;;4.57;;
43337;SDS011;28933;52.492;13.434;2022-08-04T20:00:19;9.43;;;4.55;;
43337;SDS011;28933;52.492;13.434;2022-08-04T20:02:45;8.95;;;4.63;;
43337;SDS011;28933;52.492;13.434;2022-08-04T20:05:13;6.30;;;4.90;;